Kirley, South Dakota
Current Conditions -  °F | °C
As of 10:55 AM on Wednesday 26 Nov 2014 (Local Time) from KPHP Reporting Station
Light Snow Light Snow  
Wind Chill: 26°   Ceiling: 1500
Heat Index: 26°   Visibility: 7mi
Dew Point: 19°   Wind: 0mph
Humidity: 75%   Direction: NA
Pressure: 30.3"   Gusts: NA
Location:  44.3169°N, 101.368°W
Report Text: KPHP 261755Z AUTO 00000KT 7SM -SN BKN015 OVC050 M03/M07 A3030 RMK AO2 SLP283 P0000 60000 T10331072 11028 21050 51002
Loading
Personal Weather Stations






























Interactive Weather Map New forecast layout! Learn more

10-Day Weather Forecast

Advertisements
Track Severe Weather on mobile